createdAt,value
2017-11-09T00:00:55.937Z,0.00
2017-11-09T00:01:56.096Z,0.00
2017-11-09T00:02:55.892Z,0.00
2017-11-09T00:03:55.999Z,0.00
2017-11-09T00:04:55.830Z,0.00
2017-11-09T00:05:55.910Z,0.00
2017-11-09T00:06:55.772Z,0.00
2017-11-09T00:07:55.931Z,0.00
2017-11-09T00:08:55.721Z,0.00
2017-11-09T00:09:55.851Z,0.00
2017-11-09T00:10:55.660Z,0.00
2017-11-09T00:11:55.749Z,0.00
2017-11-09T00:12:55.610Z,0.00
2017-11-09T00:13:55.764Z,0.00
2017-11-09T00:14:55.566Z,0.00
2017-11-09T00:15:55.679Z,0.00
2017-11-09T00:16:55.496Z,0.00
2017-11-09T00:17:55.590Z,0.00
2017-11-09T00:18:55.442Z,0.00
2017-11-09T00:19:55.605Z,0.00
2017-11-09T00:20:55.395Z,0.00
2017-11-09T00:21:55.513Z,0.00
2017-11-09T00:22:55.336Z,0.00
2017-11-09T00:23:55.524Z,0.00
2017-11-09T00:24:55.276Z,0.00
2017-11-09T00:25:55.434Z,0.00
2017-11-09T00:26:55.223Z,0.00
2017-11-09T00:27:56.375Z,0.00
2017-11-09T00:28:55.164Z,0.00
2017-11-09T00:29:55.260Z,0.00
2017-11-09T00:30:55.116Z,0.00
2017-11-09T00:31:55.272Z,0.00
2017-11-09T00:32:55.056Z,0.00
2017-11-09T00:33:55.184Z,0.00
2017-11-09T00:34:55.001Z,0.00
2017-11-09T00:35:55.094Z,0.00
2017-11-09T00:36:54.950Z,0.00
2017-11-09T00:37:55.006Z,0.00
2017-11-09T00:38:54.889Z,0.00
2017-11-09T00:39:54.922Z,0.00
2017-11-09T00:40:54.835Z,0.00
2017-11-09T00:41:54.929Z,0.00
2017-11-09T00:42:54.781Z,0.00
2017-11-09T00:43:54.845Z,0.00
2017-11-09T00:44:54.728Z,0.00
2017-11-09T00:45:54.758Z,0.00
2017-11-09T00:46:54.671Z,0.00
2017-11-09T00:47:54.766Z,0.00
2017-11-09T00:48:54.616Z,0.00
2017-11-09T00:49:54.680Z,0.00
2017-11-09T00:50:54.562Z,0.00
2017-11-09T00:51:54.592Z,0.00
2017-11-09T00:52:54.505Z,0.00
2017-11-09T00:53:54.607Z,0.00
2017-11-09T00:54:54.449Z,0.00
2017-11-09T00:55:54.519Z,0.00
2017-11-09T00:56:54.395Z,0.00
2017-11-09T00:57:54.429Z,0.00
2017-11-09T00:58:54.342Z,0.00
2017-11-09T00:59:54.441Z,0.00
2017-11-09T01:00:54.283Z,0.00
2017-11-09T01:01:54.357Z,0.00
2017-11-09T01:02:54.231Z,0.00
2017-11-09T01:03:54.262Z,0.00
2017-11-09T01:04:54.181Z,0.00
2017-11-09T01:05:54.283Z,0.00
2017-11-09T01:06:54.120Z,0.00
2017-11-09T01:07:54.190Z,0.00
2017-11-09T01:08:54.068Z,0.00
2017-11-09T01:09:54.101Z,0.00
2017-11-09T01:10:54.004Z,0.00
2017-11-09T01:11:54.113Z,0.00
2017-11-09T01:12:53.951Z,0.00
2017-11-09T01:13:54.027Z,0.00
2017-11-09T01:14:53.899Z,0.00
2017-11-09T01:15:53.939Z,0.00
2017-11-09T01:16:53.842Z,0.00
2017-11-09T01:17:53.952Z,0.00
2017-11-09T01:18:53.786Z,0.00
2017-11-09T01:19:53.863Z,0.00
2017-11-09T01:20:53.733Z,0.00
2017-11-09T01:21:53.782Z,0.00
2017-11-09T01:22:53.678Z,0.00
2017-11-09T01:23:53.686Z,0.00
2017-11-09T01:24:53.625Z,0.00
2017-11-09T01:25:53.703Z,0.00
2017-11-09T01:26:53.569Z,0.00
2017-11-09T01:27:53.613Z,0.00
2017-11-09T01:28:53.512Z,0.00
2017-11-09T01:29:53.628Z,0.00
2017-11-09T01:30:53.458Z,0.00
2017-11-09T01:31:53.538Z,0.00
2017-11-09T01:32:53.406Z,0.00
2017-11-09T01:33:53.447Z,0.00
2017-11-09T01:34:53.356Z,0.00
2017-11-09T01:35:53.463Z,0.00
2017-11-09T01:36:53.291Z,0.00
2017-11-09T01:37:53.376Z,0.00
2017-11-09T01:38:53.242Z,0.00
2017-11-09T01:39:53.285Z,0.00
2017-11-09T01:40:53.185Z,0.00
2017-11-09T01:41:53.298Z,0.00
2017-11-09T01:42:53.125Z,0.00
2017-11-09T01:43:53.212Z,0.00
2017-11-09T01:44:53.077Z,0.00
2017-11-09T01:45:53.122Z,0.00
2017-11-09T01:46:53.015Z,0.00
2017-11-09T01:47:53.135Z,0.00
2017-11-09T01:48:52.965Z,0.00
2017-11-09T01:49:53.046Z,0.00
2017-11-09T01:50:52.913Z,0.00
2017-11-09T01:51:52.959Z,0.00
2017-11-09T01:52:52.850Z,0.00
2017-11-09T01:53:52.983Z,0.00
2017-11-09T01:54:52.799Z,0.00
2017-11-09T01:55:52.886Z,0.00
2017-11-09T01:56:52.745Z,0.00
2017-11-09T01:57:52.796Z,0.00
2017-11-09T01:58:52.686Z,0.00
2017-11-09T01:59:52.811Z,0.00
2017-11-09T02:00:52.633Z,0.00
2017-11-09T02:01:52.722Z,0.00
2017-11-09T02:02:52.578Z,0.00
2017-11-09T02:03:52.633Z,0.00
2017-11-09T02:04:52.520Z,0.00
2017-11-09T02:05:52.655Z,0.00
2017-11-09T02:06:52.470Z,0.00
2017-11-09T02:07:52.559Z,0.00
2017-11-09T02:08:52.409Z,0.00
2017-11-09T02:09:52.469Z,0.00
2017-11-09T02:10:52.362Z,0.00
2017-11-09T02:11:52.485Z,0.00
2017-11-09T02:12:52.305Z,0.00
2017-11-09T02:13:52.396Z,0.00
2017-11-09T02:14:52.242Z,0.00
2017-11-09T02:15:52.307Z,0.00
2017-11-09T02:16:52.190Z,0.00
2017-11-09T02:17:52.321Z,0.00
2017-11-09T02:18:59.099Z,0.00
2017-11-09T02:19:52.232Z,0.00
2017-11-09T02:20:52.075Z,0.00
2017-11-09T02:21:52.250Z,0.00
2017-11-09T02:22:52.026Z,0.00
2017-11-09T02:23:52.157Z,0.00
2017-11-09T02:24:51.967Z,0.00
2017-11-09T02:25:52.070Z,0.00
2017-11-09T02:26:51.912Z,0.00
2017-11-09T02:27:52.081Z,0.00
2017-11-09T02:28:51.859Z,0.00
2017-11-09T02:29:52.000Z,0.00
2017-11-09T02:30:51.798Z,0.00
2017-11-09T02:31:51.905Z,0.00
2017-11-09T02:32:51.771Z,0.00
2017-11-09T02:33:51.920Z,0.00
2017-11-09T02:34:51.692Z,0.00
2017-11-09T02:35:51.835Z,0.00
2017-11-09T02:36:51.635Z,0.00
2017-11-09T02:37:51.742Z,0.00
2017-11-09T02:38:51.585Z,0.00
2017-11-09T02:39:51.756Z,0.00
2017-11-09T02:40:51.535Z,0.00
2017-11-09T02:41:51.671Z,0.00
2017-11-09T02:42:51.478Z,0.00
2017-11-09T02:43:51.580Z,0.00
2017-11-09T02:44:51.416Z,0.00
2017-11-09T02:45:51.592Z,0.00
2017-11-09T02:46:51.374Z,0.00
2017-11-09T02:47:51.506Z,0.00
2017-11-09T02:48:51.308Z,0.00
2017-11-09T02:49:51.417Z,0.00
2017-11-09T02:50:51.254Z,0.00
2017-11-09T02:51:51.430Z,0.00
2017-11-09T02:52:51.193Z,0.00
2017-11-09T02:53:51.340Z,0.00
2017-11-09T02:54:51.146Z,0.00
2017-11-09T02:55:51.254Z,0.00
2017-11-09T02:56:51.085Z,0.00
2017-11-09T02:57:51.265Z,0.00
2017-11-09T02:58:51.041Z,0.00
2017-11-09T02:59:51.177Z,0.00
2017-11-09T03:00:50.977Z,0.00
2017-11-09T03:01:50.990Z,0.00
2017-11-09T03:02:50.921Z,0.00
2017-11-09T03:03:51.002Z,0.00
2017-11-09T03:04:50.862Z,0.00
2017-11-09T03:05:50.912Z,0.00
2017-11-09T03:06:50.808Z,0.00
2017-11-09T03:07:50.825Z,0.00
2017-11-09T03:08:50.749Z,0.00
2017-11-09T03:09:50.844Z,0.00
2017-11-09T03:10:50.700Z,0.00
2017-11-09T03:11:50.753Z,0.00
2017-11-09T03:12:50.655Z,0.00
2017-11-09T03:13:50.659Z,0.00
2017-11-09T03:14:50.586Z,0.00
2017-11-09T03:15:50.672Z,0.00
2017-11-09T03:16:50.531Z,0.00
2017-11-09T03:17:50.586Z,0.00
2017-11-09T03:18:50.477Z,0.00
2017-11-09T03:19:50.496Z,0.00
2017-11-09T03:20:50.435Z,0.00
2017-11-09T03:21:50.514Z,0.00
2017-11-09T03:22:50.368Z,0.00
2017-11-09T03:23:50.421Z,0.00
2017-11-09T03:24:50.312Z,0.00
2017-11-09T03:25:50.333Z,0.00
2017-11-09T03:26:50.253Z,0.00
2017-11-09T03:27:50.351Z,0.00
2017-11-09T03:28:50.200Z,0.00
2017-11-09T03:29:50.261Z,0.00
2017-11-09T03:30:50.148Z,0.00
2017-11-09T03:31:50.179Z,0.00
2017-11-09T03:32:50.089Z,0.00
2017-11-09T03:33:50.184Z,0.00
2017-11-09T03:34:50.037Z,0.00
2017-11-09T03:35:50.095Z,0.00
2017-11-09T03:36:49.974Z,0.00
2017-11-09T03:37:50.007Z,0.00
2017-11-09T03:38:49.921Z,0.00
2017-11-09T03:39:50.029Z,0.00
2017-11-09T03:40:49.870Z,0.00
2017-11-09T03:41:49.933Z,0.00
2017-11-09T03:42:49.816Z,0.00
2017-11-09T03:43:49.844Z,0.00
2017-11-09T03:44:49.757Z,0.00
2017-11-09T03:45:49.857Z,0.00
2017-11-09T03:46:49.706Z,0.00
2017-11-09T03:47:49.776Z,0.00
2017-11-09T03:48:49.647Z,0.00
2017-11-09T03:49:49.681Z,0.00
2017-11-09T03:50:49.592Z,0.00
2017-11-09T03:51:49.694Z,0.00
2017-11-09T03:52:49.535Z,0.00
2017-11-09T03:53:49.606Z,0.00
2017-11-09T03:54:49.479Z,0.00
2017-11-09T03:55:49.517Z,0.00
2017-11-09T03:56:49.428Z,0.00
2017-11-09T03:57:49.527Z,0.00
2017-11-09T03:58:49.374Z,0.00
2017-11-09T03:59:49.442Z,0.00
2017-11-09T04:00:49.312Z,0.00
2017-11-09T04:01:49.359Z,0.00
2017-11-09T04:02:49.264Z,0.00
2017-11-09T04:03:49.366Z,0.00
2017-11-09T04:04:49.202Z,0.00
2017-11-09T04:05:49.284Z,0.00
2017-11-09T04:06:49.144Z,0.00
2017-11-09T04:07:49.195Z,0.00
2017-11-09T04:08:49.100Z,0.00
2017-11-09T04:09:49.208Z,0.00
2017-11-09T04:10:49.036Z,0.00
2017-11-09T04:11:49.121Z,0.00
2017-11-09T04:12:48.987Z,0.00
2017-11-09T04:13:49.035Z,0.00
2017-11-09T04:14:48.941Z,0.00
2017-11-09T04:15:49.049Z,0.00
2017-11-09T04:16:48.874Z,0.00
2017-11-09T04:17:48.948Z,0.00
2017-11-09T04:18:48.818Z,0.00
2017-11-09T04:19:48.870Z,0.00
2017-11-09T04:20:48.762Z,0.00
2017-11-09T04:21:48.885Z,0.00
2017-11-09T04:22:48.706Z,0.00
2017-11-09T04:23:48.791Z,0.00
2017-11-09T04:24:48.650Z,0.00
2017-11-09T04:25:48.702Z,0.00
2017-11-09T04:26:48.592Z,0.00
2017-11-09T04:27:48.716Z,0.00
2017-11-09T04:28:48.541Z,0.00
2017-11-09T04:29:48.632Z,0.00
2017-11-09T04:30:48.490Z,0.00
2017-11-09T04:31:48.646Z,0.00
2017-11-09T04:32:48.428Z,0.00
2017-11-09T04:33:48.557Z,0.00
2017-11-09T04:34:48.378Z,0.00
2017-11-09T04:35:48.470Z,0.00
2017-11-09T04:36:48.315Z,0.00
2017-11-09T04:37:48.380Z,0.00
2017-11-09T04:38:48.263Z,0.00
2017-11-09T04:39:48.392Z,0.00
2017-11-09T04:40:48.209Z,0.00
2017-11-09T04:41:48.308Z,0.00
2017-11-09T04:42:48.154Z,0.00
2017-11-09T04:43:48.316Z,0.00
2017-11-09T04:44:48.095Z,0.00
2017-11-09T04:45:48.229Z,0.00
2017-11-09T04:46:48.042Z,0.00
2017-11-09T04:47:48.140Z,0.00
2017-11-09T04:48:47.987Z,0.00
2017-11-09T04:49:48.158Z,0.00
2017-11-09T04:50:47.929Z,0.00
2017-11-09T04:51:48.064Z,0.00
2017-11-09T04:52:47.872Z,0.00
2017-11-09T04:53:47.972Z,0.00
2017-11-09T04:54:47.817Z,0.00
2017-11-09T04:55:47.991Z,0.00
2017-11-09T04:56:47.762Z,0.00
2017-11-09T04:57:47.903Z,0.00
2017-11-09T04:58:47.709Z,0.00
2017-11-09T04:59:47.818Z,0.00
2017-11-09T05:00:47.649Z,0.00
2017-11-09T05:01:47.827Z,0.00
2017-11-09T05:02:47.597Z,0.00
2017-11-09T05:03:47.738Z,0.00
2017-11-09T05:04:47.546Z,0.00
2017-11-09T05:05:47.647Z,0.00
2017-11-09T05:06:47.484Z,0.00
2017-11-09T05:07:47.663Z,0.00
2017-11-09T05:08:47.438Z,0.00
2017-11-09T05:09:47.569Z,0.00
2017-11-09T05:10:47.371Z,0.00
2017-11-09T05:11:47.482Z,0.00
2017-11-09T05:12:47.333Z,0.00
2017-11-09T05:13:47.494Z,0.00
2017-11-09T05:14:47.262Z,0.00
2017-11-09T05:15:47.409Z,0.00
2017-11-09T05:16:47.207Z,0.00
2017-11-09T05:17:48.345Z,0.00
2017-11-09T05:18:47.154Z,0.00
2017-11-09T05:19:47.332Z,0.00
2017-11-09T05:20:47.094Z,0.00
2017-11-09T05:21:47.243Z,0.00
2017-11-09T05:22:47.043Z,0.00
2017-11-09T05:23:47.160Z,0.00
2017-11-09T05:24:46.981Z,0.00
2017-11-09T05:25:47.168Z,0.00
2017-11-09T05:26:46.932Z,0.00
2017-11-09T05:27:47.081Z,0.00
2017-11-09T05:28:46.880Z,0.00
2017-11-09T05:29:46.888Z,0.00
2017-11-09T05:30:46.815Z,0.00
2017-11-09T05:31:46.904Z,0.00
2017-11-09T05:32:46.765Z,0.00
2017-11-09T05:33:46.814Z,0.00
2017-11-09T05:34:46.701Z,0.00
2017-11-09T05:35:46.724Z,0.00
2017-11-09T05:36:46.647Z,0.00
2017-11-09T05:37:46.740Z,0.00
2017-11-09T05:38:46.592Z,0.00
2017-11-09T05:39:46.654Z,0.00
2017-11-09T05:40:46.538Z,0.00
2017-11-09T05:41:46.565Z,0.00
2017-11-09T05:42:46.501Z,0.00
2017-11-09T05:43:46.576Z,0.00
2017-11-09T05:44:46.441Z,0.00
2017-11-09T05:45:46.488Z,0.00
2017-11-09T05:46:46.372Z,0.00
2017-11-09T05:47:46.402Z,0.00
2017-11-09T05:48:46.316Z,0.00
2017-11-09T05:49:46.416Z,0.00
2017-11-09T05:50:46.261Z,0.00
2017-11-09T05:51:46.329Z,0.00
2017-11-09T05:52:46.208Z,0.00
2017-11-09T05:53:46.240Z,0.00
2017-11-09T05:54:46.149Z,0.00
2017-11-09T05:55:46.251Z,0.00
2017-11-09T05:56:46.089Z,0.00
2017-11-09T05:57:46.164Z,0.00
2017-11-09T05:58:46.037Z,0.00
2017-11-09T05:59:46.074Z,0.00
2017-11-09T06:00:45.973Z,0.00
2017-11-09T06:01:46.090Z,0.00
2017-11-09T06:02:45.921Z,0.00
2017-11-09T06:03:45.999Z,0.00
2017-11-09T06:04:45.873Z,0.00
2017-11-09T06:05:45.912Z,0.00
2017-11-09T06:06:45.809Z,0.00
2017-11-09T06:07:45.924Z,0.00
2017-11-09T06:08:45.754Z,0.00
2017-11-09T06:09:45.844Z,0.00
2017-11-09T06:10:45.697Z,0.00
2017-11-09T06:11:45.748Z,0.00
2017-11-09T06:12:45.642Z,0.00
2017-11-09T06:13:45.769Z,0.00
2017-11-09T06:14:45.578Z,0.00
2017-11-09T06:15:45.672Z,0.00
2017-11-09T06:16:45.531Z,0.00
2017-11-09T06:17:45.585Z,0.00
2017-11-09T06:18:45.475Z,0.00
2017-11-09T06:19:45.596Z,0.00
2017-11-09T06:20:45.413Z,0.00
2017-11-09T06:21:45.507Z,0.00
2017-11-09T06:22:45.359Z,0.00
2017-11-09T06:23:45.423Z,0.00
2017-11-09T06:24:45.308Z,0.00
2017-11-09T06:25:45.336Z,0.00
2017-11-09T06:26:45.256Z,0.00
2017-11-09T06:27:45.351Z,0.00
2017-11-09T06:28:45.196Z,0.00
2017-11-09T06:29:45.259Z,0.00
2017-11-09T06:30:45.134Z,0.00
2017-11-09T06:31:45.276Z,0.00
2017-11-09T06:32:45.075Z,0.00
2017-11-09T06:33:45.185Z,0.00
2017-11-09T06:34:45.024Z,0.00
2017-11-09T06:35:45.096Z,0.00
2017-11-09T06:36:44.967Z,0.00
2017-11-09T06:37:45.008Z,0.00
2017-11-09T06:38:44.908Z,0.00
2017-11-09T06:39:45.022Z,0.00
2017-11-09T06:40:44.852Z,0.00
2017-11-09T06:41:44.933Z,0.00
2017-11-09T06:42:44.813Z,0.00
2017-11-09T06:43:44.845Z,0.00
2017-11-09T06:44:44.757Z,0.00
2017-11-09T06:45:44.857Z,0.00
2017-11-09T06:46:44.684Z,0.00
2017-11-09T06:47:44.772Z,0.00
2017-11-09T06:48:44.624Z,0.00
2017-11-09T06:49:44.683Z,0.00
2017-11-09T06:50:44.570Z,0.00
2017-11-09T06:51:44.693Z,0.00
2017-11-09T06:52:44.521Z,0.00
2017-11-09T06:53:44.605Z,0.00
2017-11-09T06:54:44.459Z,0.00
2017-11-09T06:55:44.518Z,0.00
2017-11-09T06:56:44.402Z,0.00
2017-11-09T06:57:44.527Z,0.00
2017-11-09T06:58:44.344Z,0.00
2017-11-09T06:59:44.443Z,0.00
2017-11-09T07:00:44.286Z,0.00
2017-11-09T07:01:44.354Z,0.00
2017-11-09T07:02:44.234Z,0.00
2017-11-09T07:03:44.369Z,5.63
2017-11-09T07:04:44.171Z,5.63
2017-11-09T07:05:44.280Z,5.63
2017-11-09T07:06:44.118Z,5.63
2017-11-09T07:07:44.188Z,5.63
2017-11-09T07:08:44.064Z,5.63
2017-11-09T07:09:44.202Z,5.63
2017-11-09T07:10:44.007Z,5.63
2017-11-09T07:11:44.113Z,5.63
2017-11-09T07:12:43.947Z,5.63
2017-11-09T07:13:44.028Z,5.63
2017-11-09T07:14:43.897Z,5.63
2017-11-09T07:15:44.039Z,5.63
2017-11-09T07:16:43.835Z,5.63
2017-11-09T07:17:43.952Z,5.63
2017-11-09T07:18:43.783Z,5.63
2017-11-09T07:19:43.864Z,5.63
2017-11-09T07:20:43.726Z,5.63
2017-11-09T07:21:43.876Z,5.63
2017-11-09T07:22:43.666Z,11.25
2017-11-09T07:23:43.788Z,11.25
2017-11-09T07:24:43.611Z,11.25
2017-11-09T07:25:43.722Z,11.25
2017-11-09T07:26:43.556Z,11.25
2017-11-09T07:27:43.715Z,11.25
2017-11-09T07:28:43.500Z,11.25
2017-11-09T07:29:43.628Z,11.25
2017-11-09T07:30:43.445Z,11.25
2017-11-09T07:31:43.545Z,11.25
2017-11-09T07:32:43.385Z,11.25
2017-11-09T07:33:43.550Z,16.88
2017-11-09T07:34:43.333Z,16.88
2017-11-09T07:35:43.462Z,16.88
2017-11-09T07:36:43.271Z,16.88
2017-11-09T07:37:43.375Z,16.88
2017-11-09T07:38:43.230Z,16.88
2017-11-09T07:39:43.393Z,16.88
2017-11-09T07:40:43.158Z,16.88
2017-11-09T07:41:43.296Z,16.88
2017-11-09T07:42:43.098Z,16.88
2017-11-09T07:43:43.211Z,16.88
2017-11-09T07:44:43.046Z,16.88
2017-11-09T07:45:43.228Z,16.88
2017-11-09T07:46:42.993Z,16.88
2017-11-09T07:47:43.136Z,16.88
2017-11-09T07:48:42.935Z,16.88
2017-11-09T07:49:43.047Z,16.88
2017-11-09T07:50:42.882Z,16.88
2017-11-09T07:51:43.062Z,16.88
2017-11-09T07:52:42.820Z,16.88
2017-11-09T07:53:42.971Z,16.88
2017-11-09T07:54:42.780Z,16.88
2017-11-09T07:55:42.781Z,22.50
2017-11-09T07:56:42.708Z,22.50
2017-11-09T07:57:42.791Z,22.50
2017-11-09T07:58:42.653Z,22.50
2017-11-09T07:59:42.713Z,28.13
2017-11-09T08:00:42.596Z,28.13
2017-11-09T08:01:42.615Z,28.13
2017-11-09T08:02:42.540Z,28.13
2017-11-09T08:03:42.630Z,28.13
2017-11-09T08:04:42.485Z,28.13
2017-11-09T08:05:42.542Z,28.13
2017-11-09T08:06:42.424Z,28.13
2017-11-09T08:07:42.457Z,22.50
2017-11-09T08:08:42.378Z,22.50
2017-11-09T08:09:42.468Z,22.50
2017-11-09T08:10:42.314Z,22.50
2017-11-09T08:11:42.382Z,28.13
2017-11-09T08:12:42.263Z,33.75
2017-11-09T08:13:42.293Z,33.75
2017-11-09T08:14:42.202Z,39.38
2017-11-09T08:15:42.310Z,45.00
2017-11-09T08:16:42.145Z,45.00
2017-11-09T08:17:42.218Z,45.00
2017-11-09T08:18:42.095Z,50.63
2017-11-09T08:19:42.127Z,50.63
2017-11-09T08:20:42.032Z,50.63
2017-11-09T08:21:42.144Z,50.63
2017-11-09T08:22:41.979Z,50.63
2017-11-09T08:23:42.062Z,56.25
2017-11-09T08:24:41.917Z,56.25
2017-11-09T08:25:41.967Z,50.63
2017-11-09T08:26:41.863Z,50.63
2017-11-09T08:27:41.879Z,45.00
2017-11-09T08:28:41.810Z,50.63
2017-11-09T08:29:41.892Z,50.63
2017-11-09T08:30:41.753Z,56.25
2017-11-09T08:31:41.801Z,56.25
2017-11-09T08:32:41.696Z,56.25
2017-11-09T08:33:41.715Z,61.88
2017-11-09T08:34:41.641Z,67.50
2017-11-09T08:35:41.730Z,67.50
2017-11-09T08:36:41.584Z,56.25
2017-11-09T08:37:41.638Z,56.25
2017-11-09T08:38:41.523Z,56.25
2017-11-09T08:39:41.500Z,61.88
2017-11-09T08:40:41.517Z,61.88
2017-11-09T08:41:41.448Z,56.25
2017-11-09T08:42:41.426Z,56.25
2017-11-09T08:43:41.391Z,50.63
2017-11-09T08:44:41.441Z,50.63
2017-11-09T08:45:41.344Z,45.00
2017-11-09T08:46:41.352Z,45.00
2017-11-09T08:47:41.276Z,45.00
2017-11-09T08:48:41.261Z,50.63
2017-11-09T08:49:41.224Z,56.25
2017-11-09T08:50:41.277Z,56.25
2017-11-09T08:51:41.164Z,61.88
2017-11-09T08:52:41.185Z,67.50
2017-11-09T08:53:41.105Z,73.13
2017-11-09T08:54:41.096Z,67.50
2017-11-09T08:55:41.065Z,61.88
2017-11-09T08:56:41.125Z,61.88
2017-11-09T08:57:40.999Z,61.88
2017-11-09T08:58:41.030Z,61.88
2017-11-09T08:59:40.950Z,73.13
2017-11-09T09:00:40.931Z,78.75
2017-11-09T09:01:40.898Z,78.75
2017-11-09T09:02:40.959Z,90.00
2017-11-09T09:03:40.830Z,106.88
2017-11-09T09:04:40.858Z,106.88
2017-11-09T09:05:40.777Z,90.00
2017-11-09T09:06:40.759Z,84.38
2017-11-09T09:07:40.724Z,84.38
2017-11-09T09:08:40.774Z,73.13
2017-11-09T09:09:40.663Z,61.88
2017-11-09T09:10:40.680Z,50.63
2017-11-09T09:11:40.614Z,45.00
2017-11-09T09:12:40.590Z,39.38
2017-11-09T09:13:40.551Z,39.38
2017-11-09T09:14:40.607Z,39.38
2017-11-09T09:15:40.500Z,39.38
2017-11-09T09:16:40.583Z,45.00
2017-11-09T09:17:40.439Z,39.38
2017-11-09T09:18:40.411Z,33.75
2017-11-09T09:19:40.387Z,33.75
2017-11-09T09:20:40.512Z,33.75
2017-11-09T09:21:40.328Z,39.38
2017-11-09T09:22:40.419Z,45.00
2017-11-09T09:23:40.277Z,50.63
2017-11-09T09:24:40.431Z,56.25
2017-11-09T09:25:40.220Z,50.63
2017-11-09T09:26:40.343Z,50.63
2017-11-09T09:27:40.165Z,56.25
2017-11-09T09:28:40.254Z,61.88
2017-11-09T09:29:40.116Z,67.50
2017-11-09T09:30:40.268Z,73.13
2017-11-09T09:31:40.050Z,78.75
2017-11-09T09:32:40.187Z,84.38
2017-11-09T09:33:39.998Z,95.63
2017-11-09T09:34:40.092Z,101.25
2017-11-09T09:35:39.939Z,106.88
2017-11-09T09:36:40.108Z,118.13
2017-11-09T09:37:39.886Z,140.63
2017-11-09T09:38:40.019Z,146.25
2017-11-09T09:39:39.836Z,151.88
2017-11-09T09:40:39.926Z,157.50
2017-11-09T09:41:39.770Z,140.63
2017-11-09T09:42:39.945Z,146.25
2017-11-09T09:43:39.720Z,157.50
2017-11-09T09:44:39.855Z,151.88
2017-11-09T09:45:39.662Z,140.63
2017-11-09T09:46:39.765Z,135.00
2017-11-09T09:47:39.607Z,129.38
2017-11-09T09:48:39.778Z,135.00
2017-11-09T09:49:39.554Z,146.25
2017-11-09T09:50:39.687Z,157.50
2017-11-09T09:51:39.500Z,174.38
2017-11-09T09:52:39.512Z,185.63
2017-11-09T09:53:39.452Z,230.63
2017-11-09T09:54:39.614Z,303.75
2017-11-09T09:55:39.390Z,331.88
2017-11-09T09:56:39.526Z,191.25
2017-11-09T09:57:39.332Z,174.38
2017-11-09T09:58:39.435Z,174.38
2017-11-09T09:59:39.278Z,247.50
2017-11-09T10:00:39.347Z,281.25
2017-11-09T10:01:39.222Z,208.13
2017-11-09T10:02:39.359Z,236.25
2017-11-09T10:03:39.169Z,247.50
2017-11-09T10:04:39.274Z,292.50
2017-11-09T10:05:39.112Z,320.63
2017-11-09T10:06:39.288Z,247.50
2017-11-09T10:07:39.080Z,146.25
2017-11-09T10:08:39.205Z,123.75
2017-11-09T10:09:39.007Z,118.13
2017-11-09T10:10:39.116Z,106.88
2017-11-09T10:11:38.949Z,95.63
2017-11-09T10:12:39.139Z,61.88
2017-11-09T10:13:38.900Z,56.25
2017-11-09T10:14:39.034Z,50.63
2017-11-09T10:15:38.850Z,50.63
2017-11-09T10:16:38.947Z,45.00
2017-11-09T10:17:38.788Z,45.00
2017-11-09T10:18:38.960Z,39.38
2017-11-09T10:19:38.737Z,39.38
2017-11-09T10:20:38.876Z,39.38
2017-11-09T10:21:38.692Z,45.00
2017-11-09T10:22:38.681Z,45.00
2017-11-09T10:23:38.649Z,45.00
2017-11-09T10:24:38.694Z,50.63
2017-11-09T10:25:38.570Z,61.88
2017-11-09T10:26:38.606Z,78.75
2017-11-09T10:27:38.521Z,90.00
2017-11-09T10:28:38.518Z,101.25
2017-11-09T10:29:38.470Z,95.63
2017-11-09T10:30:38.528Z,90.00
2017-11-09T10:31:38.408Z,95.63
2017-11-09T10:32:38.440Z,112.50
2017-11-09T10:33:38.352Z,146.25
2017-11-09T10:34:38.455Z,292.50
2017-11-09T10:35:38.299Z,247.50
2017-11-09T10:36:38.287Z,191.25
2017-11-09T10:37:38.244Z,129.38
2017-11-09T10:38:38.317Z,112.50
2017-11-09T10:39:38.194Z,135.00
2017-11-09T10:40:38.294Z,219.38
2017-11-09T10:41:38.137Z,399.38
2017-11-09T10:42:38.208Z,146.25
2017-11-09T10:43:38.083Z,90.00
2017-11-09T10:44:38.121Z,84.38
2017-11-09T10:45:38.031Z,90.00
2017-11-09T10:46:38.126Z,106.88
2017-11-09T10:47:37.969Z,123.75
2017-11-09T10:48:38.037Z,123.75
2017-11-09T10:49:37.917Z,146.25
2017-11-09T10:50:37.951Z,157.50
2017-11-09T10:51:37.876Z,135.00
2017-11-09T10:52:37.965Z,106.88
2017-11-09T10:53:37.806Z,84.38
2017-11-09T10:54:37.874Z,73.13
2017-11-09T10:55:37.757Z,73.13
2017-11-09T10:56:37.788Z,78.75
2017-11-09T10:57:37.704Z,95.63
2017-11-09T10:58:37.802Z,101.25
2017-11-09T10:59:37.645Z,101.25
2017-11-09T11:00:37.713Z,101.25
2017-11-09T11:01:37.598Z,101.25
2017-11-09T11:02:37.623Z,112.50
2017-11-09T11:03:37.535Z,129.38
2017-11-09T11:04:37.638Z,140.63
2017-11-09T11:05:37.479Z,157.50
2017-11-09T11:06:37.549Z,174.38
2017-11-09T11:07:37.431Z,140.63
2017-11-09T11:08:37.472Z,118.13
2017-11-09T11:09:37.375Z,135.00
2017-11-09T11:10:37.475Z,118.13
2017-11-09T11:11:37.320Z,118.13
2017-11-09T11:12:37.391Z,129.38
2017-11-09T11:13:37.268Z,191.25
2017-11-09T11:14:37.298Z,196.88
2017-11-09T11:15:37.211Z,225.00
2017-11-09T11:16:37.313Z,270.00
2017-11-09T11:17:37.154Z,399.38
2017-11-09T11:18:37.132Z,551.25
2017-11-09T11:19:37.232Z,585.00
2017-11-09T11:20:37.074Z,1175.63
2017-11-09T11:21:37.145Z,1389.38
2017-11-09T11:22:37.026Z,1243.13
2017-11-09T11:23:36.999Z,646.88
2017-11-09T11:24:36.969Z,444.38
2017-11-09T11:25:37.074Z,326.25
2017-11-09T11:26:36.916Z,275.63
2017-11-09T11:27:38.006Z,348.75
2017-11-09T11:28:36.868Z,860.63
2017-11-09T11:29:36.994Z,793.13
2017-11-09T11:30:36.820Z,331.88
2017-11-09T11:31:36.905Z,241.88
2017-11-09T11:32:36.767Z,984.38
2017-11-09T11:33:36.819Z,1468.13
2017-11-09T11:34:36.710Z,1614.38
2017-11-09T11:35:36.827Z,556.88
2017-11-09T11:36:36.662Z,382.50
2017-11-09T11:37:36.744Z,270.00
2017-11-09T11:38:36.609Z,213.75
2017-11-09T11:39:36.756Z,146.25
2017-11-09T11:40:36.563Z,174.38
2017-11-09T11:41:36.669Z,225.00
2017-11-09T11:42:36.506Z,213.75
2017-11-09T11:43:36.578Z,208.13
2017-11-09T11:44:36.459Z,185.63
2017-11-09T11:45:36.592Z,180.00
2017-11-09T11:46:36.411Z,241.88
2017-11-09T11:47:36.505Z,393.75
2017-11-09T11:48:36.359Z,450.00
2017-11-09T11:49:36.417Z,337.50
2017-11-09T11:50:36.309Z,286.88
2017-11-09T11:51:36.428Z,202.50
2017-11-09T11:52:36.266Z,185.63
2017-11-09T11:53:36.352Z,202.50
2017-11-09T11:54:36.210Z,253.13
2017-11-09T11:55:36.355Z,202.50
2017-11-09T11:56:36.156Z,180.00
2017-11-09T11:57:36.265Z,163.13
2017-11-09T11:58:36.109Z,168.75
2017-11-09T11:59:36.177Z,180.00
2017-11-09T12:00:36.050Z,168.75
2017-11-09T12:01:36.190Z,157.50
2017-11-09T12:02:35.998Z,151.88
2017-11-09T12:03:36.026Z,140.63
2017-11-09T12:04:35.947Z,140.63
2017-11-09T12:05:36.012Z,146.25
2017-11-09T12:06:35.899Z,168.75
2017-11-09T12:07:36.028Z,174.38
2017-11-09T12:08:35.844Z,163.13
2017-11-09T12:09:35.938Z,151.88
2017-11-09T12:10:35.792Z,135.00
2017-11-09T12:11:35.956Z,112.50
2017-11-09T12:12:35.739Z,95.63
2017-11-09T12:13:35.879Z,84.38
2017-11-09T12:14:35.684Z,78.75
2017-11-09T12:15:35.777Z,73.13
2017-11-09T12:16:35.649Z,61.88
2017-11-09T12:17:35.794Z,61.88
2017-11-09T12:18:35.587Z,61.88
2017-11-09T12:19:35.700Z,61.88
2017-11-09T12:20:35.532Z,61.88
2017-11-09T12:21:35.613Z,61.88
2017-11-09T12:22:35.480Z,61.88
2017-11-09T12:23:35.625Z,56.25
2017-11-09T12:24:35.424Z,50.63
2017-11-09T12:25:35.541Z,50.63
2017-11-09T12:26:35.367Z,50.63
2017-11-09T12:27:35.554Z,50.63
2017-11-09T12:28:35.319Z,61.88
2017-11-09T12:29:35.463Z,61.88
2017-11-09T12:30:35.265Z,84.38
2017-11-09T12:31:35.375Z,112.50
2017-11-09T12:32:35.209Z,140.63
2017-11-09T12:33:35.391Z,129.38
2017-11-09T12:34:35.157Z,123.75
2017-11-09T12:35:35.327Z,135.00
2017-11-09T12:36:35.118Z,168.75
2017-11-09T12:37:35.083Z,202.50
2017-11-09T12:38:35.226Z,247.50
2017-11-09T12:39:35.028Z,365.63
2017-11-09T12:40:35.132Z,326.25
2017-11-09T12:41:34.977Z,281.25
2017-11-09T12:42:34.954Z,315.00
2017-11-09T12:43:34.925Z,275.63
2017-11-09T12:44:35.094Z,191.25
2017-11-09T12:45:34.866Z,168.75
2017-11-09T12:46:34.858Z,196.88
2017-11-09T12:47:34.814Z,196.88
2017-11-09T12:48:34.884Z,185.63
2017-11-09T12:49:34.757Z,163.13
2017-11-09T12:50:34.793Z,135.00
2017-11-09T12:51:34.706Z,118.13
2017-11-09T12:52:34.811Z,101.25
2017-11-09T12:53:34.654Z,95.63
2017-11-09T12:54:34.721Z,106.88
2017-11-09T12:55:34.605Z,123.75
2017-11-09T12:56:34.630Z,146.25
2017-11-09T12:57:34.541Z,151.88
2017-11-09T12:58:34.644Z,135.00
2017-11-09T12:59:34.491Z,123.75
2017-11-09T13:00:34.554Z,123.75
2017-11-09T13:01:34.438Z,151.88